createdAt,value
2022-08-05T00:01:35.928Z,99580.25
2022-08-05T00:04:08.140Z,99580.47
2022-08-05T00:06:36.263Z,99586.66
2022-08-05T10:34:08.117Z,99622.63
2022-08-05T10:36:40.984Z,99632.94
2022-08-05T10:39:15.323Z,99632.16
2022-08-05T10:42:11.329Z,99629.91
2022-08-05T10:44:43.694Z,99619.88
2022-08-05T10:47:26.921Z,99613.38
2022-08-05T10:50:31.936Z,99617.56
2022-08-05T10:53:01.030Z,99611.69
2022-08-05T10:55:38.493Z,99609.16
2022-08-05T10:58:17.952Z,99616.63
2022-08-05T11:00:48.489Z,99621.44
2022-08-05T11:03:24.291Z,99608.00
2022-08-05T11:06:16.094Z,99622.28
2022-08-05T11:09:16.377Z,99632.66
2022-08-05T11:11:53.477Z,99630.63
2022-08-05T11:14:49.428Z,99626.31
2022-08-05T11:17:59.071Z,99627.75
2022-08-05T11:20:45.280Z,99619.78
2022-08-05T11:24:04.719Z,99628.00
2022-08-05T11:26:28.311Z,99632.56
2022-08-05T11:29:06.682Z,99636.16
2022-08-05T11:31:57.537Z,99642.13
2022-08-05T11:34:39.012Z,99633.59
2022-08-05T11:38:28.525Z,99639.16
2022-08-05T11:40:00.376Z,99642.78
2022-08-05T11:42:38.081Z,99644.59
2022-08-05T11:45:23.387Z,99643.56
2022-08-05T11:47:55.257Z,99638.19
2022-08-05T11:50:22.904Z,99641.88
2022-08-05T11:52:52.159Z,99642.16
2022-08-05T11:55:22.701Z,99642.03
2022-08-05T11:58:10.088Z,99635.56
2022-08-05T12:00:41.369Z,99641.19
2022-08-05T12:03:29.264Z,99626.31
2022-08-05T12:06:06.083Z,99628.81
2022-08-05T12:08:49.787Z,99623.56
2022-08-05T12:11:23.071Z,99630.81
2022-08-05T12:14:06.053Z,99630.63
2022-08-05T12:16:45.644Z,99634.25
2022-08-05T12:20:26.548Z,99633.56
2022-08-05T12:22:01.642Z,99632.84
2022-08-05T12:24:30.150Z,99628.91
2022-08-05T12:26:57.748Z,99627.72
2022-08-05T12:29:26.081Z,99625.13
2022-08-05T12:31:57.330Z,99628.16
2022-08-05T12:34:37.013Z,99626.69
2022-08-05T12:37:17.600Z,99627.75
2022-08-05T12:39:51.607Z,99622.25
2022-08-05T12:42:20.532Z,99614.47
2022-08-05T12:44:47.979Z,99619.25
2022-08-05T12:47:26.686Z,99618.38
2022-08-05T12:50:02.392Z,99617.31
2022-08-05T12:52:39.742Z,99612.38
2022-08-05T12:55:26.416Z,99617.00
2022-08-05T13:32:29.306Z,99577.34
2022-08-05T13:35:00.957Z,99581.66
2022-08-05T13:37:34.808Z,99574.56
2022-08-05T13:40:16.189Z,99579.22
2022-08-05T13:42:47.649Z,99566.59
2022-08-05T13:45:22.521Z,99566.22
2022-08-05T13:48:09.832Z,99555.28
2022-08-05T13:50:44.642Z,99552.03
2022-08-05T13:53:15.863Z,99560.94
2022-08-05T13:55:50.081Z,99549.50
2022-08-05T13:58:30.940Z,99547.84
2022-08-05T14:00:58.857Z,99548.56
2022-08-05T14:03:29.687Z,99557.53
2022-08-05T14:06:25.350Z,99555.28
2022-08-05T14:08:46.502Z,99560.22
2022-08-05T14:11:20.911Z,99562.16
2022-08-05T14:13:49.034Z,99566.25
2022-08-05T14:16:22.125Z,99566.69
2022-08-05T14:18:49.187Z,99563.22
2022-08-05T14:22:07.239Z,99560.03
2022-08-05T14:24:03.280Z,99556.19
2022-08-05T14:26:36.741Z,99550.13
2022-08-05T14:29:16.333Z,99556.34
2022-08-05T14:32:02.274Z,99556.44
2022-08-05T15:26:50.231Z,99544.41
2022-08-05T15:29:17.272Z,99544.91
2022-08-05T15:31:51.026Z,99550.84
2022-08-05T15:34:33.148Z,99550.06
2022-08-05T15:37:06.296Z,99544.88
2022-08-05T15:40:58.245Z,99550.66
2022-08-05T15:42:50.137Z,99556.97
2022-08-05T15:45:15.183Z,99556.25
2022-08-05T15:47:43.651Z,99556.59
2022-08-05T15:50:15.875Z,99558.50
2022-08-05T15:52:53.347Z,99558.97
2022-08-05T15:55:25.101Z,99559.09
2022-08-05T15:58:16.809Z,99558.41
2022-08-05T16:00:50.538Z,99552.13
2022-08-05T16:03:30.526Z,99560.28
2022-08-05T16:05:59.978Z,99555.59
2022-08-05T16:08:30.768Z,99570.16
2022-08-05T16:10:58.800Z,99573.94
2022-08-05T16:13:34.331Z,99568.38
2022-08-05T16:16:04.074Z,99563.88
2022-08-05T16:18:32.950Z,99557.91
2022-08-05T16:21:04.211Z,99553.53
2022-08-05T16:23:33.106Z,99562.59
2022-08-05T16:26:26.214Z,99566.78
2022-08-05T16:28:54.446Z,99560.56
2022-08-05T16:31:21.736Z,99567.56
2022-08-05T16:33:49.176Z,99560.16
2022-08-05T16:36:20.176Z,99556.94
2022-08-05T16:38:54.828Z,99558.16
2022-08-05T16:42:12.143Z,99555.13
2022-08-05T16:44:16.471Z,99552.97
2022-08-05T16:46:56.109Z,99562.88
2022-08-05T16:49:23.336Z,99563.56
2022-08-05T16:51:51.145Z,99555.78
2022-08-05T16:54:27.517Z,99556.81
2022-08-05T16:56:59.023Z,99566.00
2022-08-05T16:59:27.644Z,99581.28
2022-08-05T17:01:55.949Z,99586.53
2022-08-05T17:04:26.286Z,99591.13
2022-08-05T17:06:55.421Z,99602.50
2022-08-05T17:09:23.048Z,99616.31
2022-08-05T17:11:54.664Z,99618.19
2022-08-05T17:14:36.930Z,99619.84
2022-08-05T17:17:05.846Z,99630.22
2022-08-05T17:19:32.699Z,99634.69
2022-08-05T17:22:01.375Z,99633.56
2022-08-05T17:24:38.529Z,99631.72
2022-08-05T17:27:09.228Z,99621.94
2022-08-05T17:29:41.282Z,99619.97
2022-08-05T17:32:11.427Z,99622.09
2022-08-05T17:34:47.691Z,99622.81
2022-08-05T17:37:40.546Z,99614.78
2022-08-05T17:40:10.155Z,99619.72
2022-08-05T17:42:39.914Z,99621.66
2022-08-05T17:45:20.219Z,99621.00
2022-08-05T17:47:53.622Z,99616.94
2022-08-05T17:50:28.606Z,99615.28
2022-08-05T17:52:59.110Z,99612.66
2022-08-05T17:55:34.387Z,99624.34
2022-08-05T17:58:12.864Z,99624.53
2022-08-05T18:00:44.989Z,99624.13
2022-08-05T18:03:59.199Z,99626.28
2022-08-05T18:06:12.271Z,99622.84
2022-08-05T18:08:46.070Z,99629.13
2022-08-05T18:11:23.794Z,99629.41
2022-08-05T18:13:53.361Z,99632.25
2022-08-05T18:16:20.343Z,99638.78
2022-08-05T18:21:21.042Z,99645.50
2022-08-05T18:23:53.521Z,99645.50
2022-08-05T18:26:28.965Z,99639.94
2022-08-05T18:28:57.182Z,99634.84
2022-08-05T18:31:24.046Z,99638.66
2022-08-05T18:33:51.684Z,99637.34
2022-08-05T18:36:19.166Z,99632.56
2022-08-05T18:38:46.684Z,99627.47
2022-08-05T18:41:56.551Z,99631.59
2022-08-05T18:44:06.250Z,99632.28
2022-08-05T18:46:34.653Z,99631.03
2022-08-05T18:49:21.196Z,99631.47
2022-08-05T18:52:08.625Z,99629.19
2022-08-05T18:54:36.040Z,99635.16
2022-08-05T18:57:09.638Z,99625.97
2022-08-05T19:00:02.467Z,99621.28
2022-08-05T19:02:29.642Z,99624.69
2022-08-05T19:05:02.375Z,99621.72
2022-08-05T19:07:50.236Z,99618.97
2022-08-05T19:10:28.229Z,99620.50
2022-08-05T19:12:56.802Z,99620.22
2022-08-05T19:15:56.885Z,99630.56
2022-08-05T19:18:20.569Z,99624.75
2022-08-05T19:20:49.260Z,99611.84
2022-08-05T19:24:04.286Z,99611.56
2022-08-05T19:26:03.523Z,99618.34
2022-08-05T19:28:32.817Z,99614.38
2022-08-05T19:31:01.062Z,99611.94
2022-08-05T19:33:35.065Z,99606.97
2022-08-05T19:36:03.146Z,99603.16
2022-08-05T19:38:35.688Z,99601.97
2022-08-05T19:41:07.165Z,99602.66
2022-08-05T19:44:05.940Z,99598.91
2022-08-05T19:46:29.230Z,99606.81
2022-08-05T19:48:56.811Z,99602.09
2022-08-05T19:52:05.364Z,99599.69
2022-08-05T19:54:21.919Z,99597.97
2022-08-05T19:57:02.264Z,99607.31
2022-08-05T19:59:54.992Z,99608.53
2022-08-05T20:02:18.140Z,99614.19
2022-08-05T20:04:46.462Z,99620.56
2022-08-05T20:07:15.691Z,99607.53
2022-08-05T20:10:13.188Z,99606.91
2022-08-05T20:12:46.278Z,99611.72
2022-08-05T20:15:23.202Z,99613.94
2022-08-05T20:18:10.861Z,99599.34
2022-08-05T20:20:55.845Z,99601.56
2022-08-05T20:23:39.780Z,99603.66
2022-08-05T20:26:16.536Z,99601.63
2022-08-05T20:28:51.004Z,99600.19
2022-08-05T20:31:21.727Z,99603.22
2022-08-05T20:33:55.438Z,99600.94
2022-08-05T20:36:24.022Z,99608.41
2022-08-05T20:38:53.294Z,99598.19
2022-08-05T20:41:24.080Z,99613.84
2022-08-05T20:43:58.846Z,99613.63
2022-08-05T20:46:28.513Z,99606.66
2022-08-05T20:48:55.350Z,99602.53
2022-08-05T20:51:22.187Z,99606.91
2022-08-05T20:53:55.080Z,99605.19
2022-08-05T20:56:28.856Z,99609.16
2022-08-05T20:59:00.160Z,99602.06
2022-08-05T21:01:38.958Z,99594.88
2022-08-05T21:04:10.555Z,99600.25
2022-08-05T21:06:45.632Z,99590.59
2022-08-05T21:09:14.805Z,99592.44
2022-08-05T21:12:10.962Z,99586.31
2022-08-05T21:14:35.294Z,99588.28
2022-08-05T21:17:05.754Z,99588.28
2022-08-05T21:19:47.466Z,99589.38
2022-08-05T21:22:18.573Z,99585.41
2022-08-05T21:24:51.901Z,99582.25
2022-08-05T21:27:20.636Z,99588.84
2022-08-05T21:29:52.480Z,99592.66
2022-08-05T21:32:21.067Z,99598.38
2022-08-05T21:35:08.184Z,99603.13
2022-08-05T21:37:41.192Z,99602.78
2022-08-05T21:40:13.109Z,99591.44
2022-08-05T21:42:44.720Z,99590.06
2022-08-05T21:45:24.233Z,99596.44
2022-08-05T21:47:56.552Z,99595.97
2022-08-05T21:50:27.987Z,99599.13
2022-08-05T21:52:59.174Z,99601.22
2022-08-05T21:55:42.824Z,99608.63
2022-08-05T21:58:20.154Z,99608.03
2022-08-05T22:00:51.918Z,99602.78
2022-08-05T22:03:20.700Z,99600.94
2022-08-05T22:06:06.383Z,99600.09
2022-08-05T22:08:35.248Z,99602.78
2022-08-05T22:11:02.064Z,99598.38
2022-08-05T22:14:19.895Z,99593.03
2022-08-05T22:16:41.265Z,99606.44
2022-08-05T22:19:57.054Z,99603.91
2022-08-05T22:21:56.089Z,99602.19
2022-08-05T22:24:52.431Z,99597.78
2022-08-05T22:28:08.035Z,99600.59
2022-08-05T22:30:34.875Z,99603.28
2022-08-05T22:33:15.175Z,99595.72
2022-08-05T22:35:48.304Z,99599.63
2022-08-05T22:38:16.642Z,99594.63
2022-08-05T22:40:50.128Z,99592.41
2022-08-05T22:43:36.353Z,99599.97
2022-08-05T22:46:13.756Z,99605.84
2022-08-05T22:48:50.993Z,99601.22
2022-08-05T22:51:23.092Z,99604.03
2022-08-05T22:54:05.421Z,99597.19
2022-08-05T22:56:32.305Z,99595.34
2022-08-05T22:59:02.963Z,99597.41
2022-08-05T23:02:04.060Z,99606.81
2022-08-05T23:04:33.136Z,99599.25
2022-08-05T23:06:59.940Z,99593.88
2022-08-05T23:09:52.680Z,99600.09
2022-08-05T23:12:24.500Z,99593.06
2022-08-05T23:14:51.545Z,99601.09
2022-08-05T23:17:34.775Z,99592.91
2022-08-05T23:20:16.303Z,99599.97
2022-08-05T23:22:47.595Z,99589.97
2022-08-05T23:25:50.923Z,99600.69
2022-08-05T23:28:06.970Z,99593.66
2022-08-05T23:30:40.034Z,99597.88
2022-08-05T23:33:16.289Z,99593.28
2022-08-05T23:35:50.781Z,99585.22
2022-08-05T23:38:18.039Z,99576.06
2022-08-05T23:40:50.003Z,99585.69
2022-08-05T23:43:24.545Z,99590.72
2022-08-05T23:46:04.556Z,99592.66
2022-08-05T23:48:31.324Z,99589.97
2022-08-05T23:51:01.279Z,99589.13
2022-08-05T23:53:46.504Z,99584.00
2022-08-05T23:56:13.988Z,99593.28
2022-08-05T23:58:47.112Z,99591.81
